Terminal Aerodrome Forecast
Issued by NWS Paducah, KY

Home | Current Version | Previous Version | Text Only | Print | Product List | Glossary On
Versions: 1 2 3 4 5 6 7 8 9 10 11 12 13
000
FTUS43 KPAH 171730
TAFPAH
TAF
KPAH 171730Z 1718/1818 16005KT P6SM BKN250
     FM180000 14002KT P6SM SCT250
     FM181600 19006KT P6SM SKC=

USA.gov is the U.S. government's official web portal to all federal, state and local government web resources and services.